sensor_id;sensor_type;location;lat;lon;timestamp;pressure;altitude;pressure_sealevel;temperature;humidity
26823;BME280;14852;51.910;8.878;2022-08-03T00:00:39;99773.72;;;21.41;53.99
26823;BME280;14852;51.910;8.878;2022-08-03T00:03:05;99772.19;;;21.38;54.00
26823;BME280;14852;51.910;8.878;2022-08-03T00:05:31;99769.84;;;21.35;53.90
26823;BME280;14852;51.910;8.878;2022-08-03T00:07:59;99771.97;;;21.31;54.29
26823;BME280;14852;51.910;8.878;2022-08-03T00:10:25;99771.56;;;21.26;54.29
26823;BME280;14852;51.910;8.878;2022-08-03T00:12:52;99765.91;;;21.21;54.81
26823;BME280;14852;51.910;8.878;2022-08-03T00:15:18;99773.56;;;21.15;54.94
26823;BME280;14852;51.910;8.878;2022-08-03T00:17:44;99764.94;;;21.13;54.60
26823;BME280;14852;51.910;8.878;2022-08-03T00:20:11;99767.28;;;21.16;54.52
26823;BME280;14852;51.910;8.878;2022-08-03T00:22:37;99764.38;;;21.19;54.96
26823;BME280;14852;51.910;8.878;2022-08-03T00:25:03;99764.50;;;21.17;54.74
26823;BME280;14852;51.910;8.878;2022-08-03T00:27:29;99764.78;;;21.14;54.90
26823;BME280;14852;51.910;8.878;2022-08-03T00:29:55;99765.25;;;21.10;54.75
26823;BME280;14852;51.910;8.878;2022-08-03T00:32:21;99760.41;;;21.05;55.12
26823;BME280;14852;51.910;8.878;2022-08-03T00:34:46;99760.41;;;21.05;54.84
26823;BME280;14852;51.910;8.878;2022-08-03T00:37:13;99765.53;;;21.07;55.04
26823;BME280;14852;51.910;8.878;2022-08-03T00:39:38;99761.31;;;21.14;54.86
26823;BME280;14852;51.910;8.878;2022-08-03T00:42:05;99755.50;;;21.20;54.55
26823;BME280;14852;51.910;8.878;2022-08-03T00:44:41;99754.38;;;21.22;54.29
26823;BME280;14852;51.910;8.878;2022-08-03T00:47:07;99753.00;;;21.18;54.83
26823;BME280;14852;51.910;8.878;2022-08-03T00:49:36;99764.25;;;21.20;54.92
26823;BME280;14852;51.910;8.878;2022-08-03T00:52:03;99754.78;;;21.18;55.14
26823;BME280;14852;51.910;8.878;2022-08-03T00:54:29;99753.09;;;21.17;54.83
26823;BME280;14852;51.910;8.878;2022-08-03T00:56:55;99753.69;;;21.20;54.81
26823;BME280;14852;51.910;8.878;2022-08-03T00:59:21;99746.59;;;21.21;54.62
26823;BME280;14852;51.910;8.878;2022-08-03T01:01:47;99753.00;;;21.18;54.80
26823;BME280;14852;51.910;8.878;2022-08-03T01:04:13;99741.00;;;21.14;55.06
26823;BME280;14852;51.910;8.878;2022-08-03T01:06:51;99751.88;;;21.21;55.01
26823;BME280;14852;51.910;8.878;2022-08-03T01:15:47;99739.78;;;21.18;54.39
26823;BME280;14852;51.910;8.878;2022-08-03T01:18:35;99740.50;;;21.11;54.96
26823;BME280;14852;51.910;8.878;2022-08-03T01:21:11;99742.44;;;21.09;54.94
26823;BME280;14852;51.910;8.878;2022-08-03T01:23:56;99737.69;;;21.12;55.07
26823;BME280;14852;51.910;8.878;2022-08-03T01:26:41;99734.38;;;21.10;54.76
26823;BME280;14852;51.910;8.878;2022-08-03T01:29:35;99743.78;;;21.13;55.11
26823;BME280;14852;51.910;8.878;2022-08-03T01:32:10;99731.75;;;21.10;55.20
26823;BME280;14852;51.910;8.878;2022-08-03T01:34:44;99733.97;;;21.05;55.21
26823;BME280;14852;51.910;8.878;2022-08-03T01:37:12;99739.19;;;20.97;55.56
26823;BME280;14852;51.910;8.878;2022-08-03T01:39:42;99738.63;;;20.93;55.51
26823;BME280;14852;51.910;8.878;2022-08-03T01:42:10;99738.22;;;20.88;55.76
26823;BME280;14852;51.910;8.878;2022-08-03T01:44:41;99730.75;;;20.84;55.71
26823;BME280;14852;51.910;8.878;2022-08-03T01:47:09;99735.50;;;20.80;55.90
26823;BME280;14852;51.910;8.878;2022-08-03T01:49:42;99738.69;;;20.84;55.79
26823;BME280;14852;51.910;8.878;2022-08-03T01:52:10;99744.78;;;20.84;55.66
26823;BME280;14852;51.910;8.878;2022-08-03T01:54:43;99739.50;;;20.84;55.76
26823;BME280;14852;51.910;8.878;2022-08-03T01:57:10;99740.78;;;20.80;55.87
26823;BME280;14852;51.910;8.878;2022-08-03T01:59:36;99741.22;;;20.76;55.91
26823;BME280;14852;51.910;8.878;2022-08-03T02:02:07;99739.84;;;20.72;56.06
26823;BME280;14852;51.910;8.878;2022-08-03T02:04:36;99739.44;;;20.67;56.13
26823;BME280;14852;51.910;8.878;2022-08-03T02:07:03;99737.66;;;20.57;56.02
26823;BME280;14852;51.910;8.878;2022-08-03T02:09:29;99731.16;;;20.52;56.21
26823;BME280;14852;51.910;8.878;2022-08-03T02:11:56;99732.97;;;20.51;56.62
26823;BME280;14852;51.910;8.878;2022-08-03T02:14:23;99737.09;;;20.54;56.18
26823;BME280;14852;51.910;8.878;2022-08-03T02:16:50;99731.69;;;20.55;56.44
26823;BME280;14852;51.910;8.878;2022-08-03T02:19:17;99728.91;;;20.57;56.27
26823;BME280;14852;51.910;8.878;2022-08-03T02:21:44;99732.38;;;20.57;56.07
26823;BME280;14852;51.910;8.878;2022-08-03T02:24:11;99728.91;;;20.57;56.16
26823;BME280;14852;51.910;8.878;2022-08-03T02:26:38;99732.66;;;20.54;56.19
26823;BME280;14852;51.910;8.878;2022-08-03T02:29:12;99725.19;;;20.50;56.58
26823;BME280;14852;51.910;8.878;2022-08-03T02:31:42;99724.50;;;20.48;56.38
26823;BME280;14852;51.910;8.878;2022-08-03T02:34:13;99721.16;;;20.46;56.33
26823;BME280;14852;51.910;8.878;2022-08-03T02:36:40;99728.53;;;20.42;56.33
26823;BME280;14852;51.910;8.878;2022-08-03T02:39:10;99722.59;;;20.40;56.79
26823;BME280;14852;51.910;8.878;2022-08-03T02:41:48;99722.72;;;20.39;56.65
26823;BME280;14852;51.910;8.878;2022-08-03T02:44:17;99724.22;;;20.32;56.65
26823;BME280;14852;51.910;8.878;2022-08-03T02:46:46;99721.22;;;20.27;57.12
26823;BME280;14852;51.910;8.878;2022-08-03T02:49:15;99722.31;;;20.24;57.33
26823;BME280;14852;51.910;8.878;2022-08-03T02:51:44;99719.13;;;20.20;57.29
26823;BME280;14852;51.910;8.878;2022-08-03T02:54:15;99723.88;;;20.17;57.21
26823;BME280;14852;51.910;8.878;2022-08-03T02:56:44;99721.66;;;20.12;57.06
26823;BME280;14852;51.910;8.878;2022-08-03T02:59:11;99722.75;;;20.10;57.15
26823;BME280;14852;51.910;8.878;2022-08-03T03:01:39;99724.28;;;20.12;57.51
26823;BME280;14852;51.910;8.878;2022-08-03T03:04:05;99722.19;;;20.16;57.32
26823;BME280;14852;51.910;8.878;2022-08-03T03:06:32;99720.09;;;20.19;57.48
26823;BME280;14852;51.910;8.878;2022-08-03T03:08:58;99722.72;;;20.19;57.13
26823;BME280;14852;51.910;8.878;2022-08-03T03:11:25;99720.94;;;20.20;57.59
26823;BME280;14852;51.910;8.878;2022-08-03T03:13:52;99724.94;;;20.24;57.16
26823;BME280;14852;51.910;8.878;2022-08-03T03:16:18;99726.75;;;20.23;57.42
26823;BME280;14852;51.910;8.878;2022-08-03T03:18:46;99723.44;;;20.21;57.39
26823;BME280;14852;51.910;8.878;2022-08-03T03:21:16;99722.59;;;20.21;57.47
26823;BME280;14852;51.910;8.878;2022-08-03T03:23:44;99726.38;;;20.18;57.50
26823;BME280;14852;51.910;8.878;2022-08-03T03:26:13;99721.50;;;20.14;57.99
26823;BME280;14852;51.910;8.878;2022-08-03T03:28:40;99724.41;;;20.11;57.94
26823;BME280;14852;51.910;8.878;2022-08-03T03:31:06;99730.97;;;20.07;57.98
26823;BME280;14852;51.910;8.878;2022-08-03T03:33:33;99724.44;;;20.01;57.80
26823;BME280;14852;51.910;8.878;2022-08-03T03:35:59;99725.84;;;19.96;58.37
26823;BME280;14852;51.910;8.878;2022-08-03T03:38:26;99732.94;;;19.95;58.63
26823;BME280;14852;51.910;8.878;2022-08-03T03:40:52;99723.88;;;19.98;58.87
26823;BME280;14852;51.910;8.878;2022-08-03T03:43:18;99727.06;;;20.01;58.62
26823;BME280;14852;51.910;8.878;2022-08-03T03:45:45;99733.06;;;20.03;58.25
26823;BME280;14852;51.910;8.878;2022-08-03T03:48:12;99731.09;;;20.05;58.15
26823;BME280;14852;51.910;8.878;2022-08-03T03:50:38;99735.56;;;20.05;58.22
26823;BME280;14852;51.910;8.878;2022-08-03T03:53:12;99731.94;;;20.06;58.27
26823;BME280;14852;51.910;8.878;2022-08-03T03:55:39;99734.16;;;20.01;58.58
26823;BME280;14852;51.910;8.878;2022-08-03T03:58:05;99730.28;;;19.95;58.64
26823;BME280;14852;51.910;8.878;2022-08-03T04:00:32;99728.75;;;19.93;58.86
26823;BME280;14852;51.910;8.878;2022-08-03T04:02:58;99721.97;;;19.90;58.94
26823;BME280;14852;51.910;8.878;2022-08-03T04:05:24;99718.50;;;19.89;58.79
26823;BME280;14852;51.910;8.878;2022-08-03T04:08:17;99720.16;;;19.91;58.49
26823;BME280;14852;51.910;8.878;2022-08-03T04:11:25;99723.03;;;19.97;58.61
26823;BME280;14852;51.910;8.878;2022-08-03T04:14:18;99732.91;;;20.05;58.63
26823;BME280;14852;51.910;8.878;2022-08-03T04:16:49;99720.41;;;20.07;58.46
26823;BME280;14852;51.910;8.878;2022-08-03T04:19:25;99729.41;;;20.14;58.21
26823;BME280;14852;51.910;8.878;2022-08-03T04:21:58;99728.19;;;20.18;58.38
26823;BME280;14852;51.910;8.878;2022-08-03T04:24:55;99731.63;;;20.28;58.49
26823;BME280;14852;51.910;8.878;2022-08-03T04:27:31;99728.69;;;20.31;58.45
26823;BME280;14852;51.910;8.878;2022-08-03T04:29:59;99725.66;;;20.36;58.25
26823;BME280;14852;51.910;8.878;2022-08-03T04:32:27;99727.72;;;20.42;58.44
26823;BME280;14852;51.910;8.878;2022-08-03T04:34:54;99742.97;;;20.48;57.89
26823;BME280;14852;51.910;8.878;2022-08-03T04:37:40;99739.34;;;20.58;57.66
26823;BME280;14852;51.910;8.878;2022-08-03T04:40:15;99745.31;;;20.60;58.09
26823;BME280;14852;51.910;8.878;2022-08-03T04:42:44;99742.38;;;20.64;58.16
26823;BME280;14852;51.910;8.878;2022-08-03T04:45:12;99741.78;;;20.70;57.74
26823;BME280;14852;51.910;8.878;2022-08-03T04:47:40;99746.50;;;20.76;58.16
26823;BME280;14852;51.910;8.878;2022-08-03T04:50:07;99748.97;;;20.87;57.61
26823;BME280;14852;51.910;8.878;2022-08-03T04:52:34;99756.25;;;21.30;56.91
26823;BME280;14852;51.910;8.878;2022-08-03T04:55:00;99745.25;;;22.06;55.20
26823;BME280;14852;51.910;8.878;2022-08-03T04:57:26;99747.97;;;22.39;54.21
26823;BME280;14852;51.910;8.878;2022-08-03T04:59:53;99744.22;;;22.50;53.97
26823;BME280;14852;51.910;8.878;2022-08-03T05:02:20;99742.25;;;23.20;52.68
26823;BME280;14852;51.910;8.878;2022-08-03T05:04:46;99742.22;;;23.95;50.78
26823;BME280;14852;51.910;8.878;2022-08-03T05:07:13;99732.81;;;24.72;49.42
26823;BME280;14852;51.910;8.878;2022-08-03T05:09:39;99735.56;;;24.95;48.44
26823;BME280;14852;51.910;8.878;2022-08-03T05:12:06;99741.50;;;25.05;48.82
26823;BME280;14852;51.910;8.878;2022-08-03T05:17:07;99740.97;;;25.94;47.24
26823;BME280;14852;51.910;8.878;2022-08-03T05:19:34;99724.72;;;26.71;45.91
26823;BME280;14852;51.910;8.878;2022-08-03T05:22:00;99723.88;;;27.14;45.21
26823;BME280;14852;51.910;8.878;2022-08-03T05:24:26;99723.47;;;27.68;44.13
26823;BME280;14852;51.910;8.878;2022-08-03T05:26:52;99721.53;;;28.32;43.32
26823;BME280;14852;51.910;8.878;2022-08-03T05:29:18;99713.41;;;28.81;41.99
26823;BME280;14852;51.910;8.878;2022-08-03T05:31:43;99719.31;;;29.25;41.30
26823;BME280;14852;51.910;8.878;2022-08-03T05:34:09;99716.56;;;29.79;40.69
26823;BME280;14852;51.910;8.878;2022-08-03T05:36:35;99717.19;;;29.74;40.63
26823;BME280;14852;51.910;8.878;2022-08-03T05:39:01;99716.50;;;29.39;41.63
26823;BME280;14852;51.910;8.878;2022-08-03T05:41:26;99711.00;;;28.93;42.13
26823;BME280;14852;51.910;8.878;2022-08-03T05:43:53;99712.50;;;28.74;42.89
26823;BME280;14852;51.910;8.878;2022-08-03T05:46:21;99719.03;;;28.31;43.85
26823;BME280;14852;51.910;8.878;2022-08-03T05:48:47;99712.31;;;28.35;43.95
26823;BME280;14852;51.910;8.878;2022-08-03T05:51:13;99717.94;;;28.81;43.14
26823;BME280;14852;51.910;8.878;2022-08-03T05:53:40;99717.38;;;29.73;41.33
26823;BME280;14852;51.910;8.878;2022-08-03T05:56:06;99710.78;;;29.88;41.05
26823;BME280;14852;51.910;8.878;2022-08-03T05:58:32;99713.47;;;29.82;41.01
26823;BME280;14852;51.910;8.878;2022-08-03T06:00:58;99720.50;;;29.76;41.39
26823;BME280;14852;51.910;8.878;2022-08-03T06:03:24;99717.19;;;29.81;41.47
26823;BME280;14852;51.910;8.878;2022-08-03T06:05:49;99707.50;;;30.13;40.46
26823;BME280;14852;51.910;8.878;2022-08-03T06:08:15;99703.78;;;30.98;38.79
26823;BME280;14852;51.910;8.878;2022-08-03T06:10:41;99707.50;;;31.73;38.19
26823;BME280;14852;51.910;8.878;2022-08-03T06:13:06;99704.41;;;32.26;37.61
26823;BME280;14852;51.910;8.878;2022-08-03T06:15:32;99696.81;;;32.78;36.54
26823;BME280;14852;51.910;8.878;2022-08-03T06:17:59;99703.59;;;32.62;37.21
26823;BME280;14852;51.910;8.878;2022-08-03T06:20:25;99706.53;;;32.42;37.42
26823;BME280;14852;51.910;8.878;2022-08-03T06:22:51;99705.72;;;32.78;36.92
26823;BME280;14852;51.910;8.878;2022-08-03T06:25:17;99712.34;;;33.42;35.88
26823;BME280;14852;51.910;8.878;2022-08-03T06:27:44;99712.59;;;34.05;35.03
26823;BME280;14852;51.910;8.878;2022-08-03T06:30:11;99710.19;;;34.91;33.80
26823;BME280;14852;51.910;8.878;2022-08-03T06:32:40;99703.94;;;35.02;33.79
26823;BME280;14852;51.910;8.878;2022-08-03T06:35:08;99702.34;;;35.17;33.49
26823;BME280;14852;51.910;8.878;2022-08-03T06:37:47;99711.50;;;34.88;34.68
26823;BME280;14852;51.910;8.878;2022-08-03T06:40:20;99704.81;;;35.19;34.02
26823;BME280;14852;51.910;8.878;2022-08-03T06:42:53;99709.94;;;35.32;34.08
26823;BME280;14852;51.910;8.878;2022-08-03T06:45:18;99709.28;;;35.25;34.17
26823;BME280;14852;51.910;8.878;2022-08-03T06:47:44;99709.31;;;35.58;33.80
26823;BME280;14852;51.910;8.878;2022-08-03T06:50:10;99715.50;;;36.04;33.19
26823;BME280;14852;51.910;8.878;2022-08-03T06:52:36;99708.59;;;36.69;32.36
26823;BME280;14852;51.910;8.878;2022-08-03T06:55:02;99709.53;;;37.50;31.28
26823;BME280;14852;51.910;8.878;2022-08-03T06:57:28;99702.25;;;38.19;30.47
26823;BME280;14852;51.910;8.878;2022-08-03T06:59:54;99702.63;;;38.43;30.06
26823;BME280;14852;51.910;8.878;2022-08-03T07:02:27;99698.38;;;37.78;31.30
26823;BME280;14852;51.910;8.878;2022-08-03T07:04:53;99702.97;;;38.10;31.10
26823;BME280;14852;51.910;8.878;2022-08-03T07:07:19;99695.19;;;38.70;30.04
26823;BME280;14852;51.910;8.878;2022-08-03T07:09:45;99694.84;;;39.34;29.48
26823;BME280;14852;51.910;8.878;2022-08-03T07:12:12;99697.88;;;39.63;28.91
26823;BME280;14852;51.910;8.878;2022-08-03T07:14:38;99700.03;;;39.51;29.31
26823;BME280;14852;51.910;8.878;2022-08-03T07:17:04;99695.44;;;39.92;28.97
26823;BME280;14852;51.910;8.878;2022-08-03T07:19:29;99700.97;;;40.62;28.18
26823;BME280;14852;51.910;8.878;2022-08-03T07:21:55;99700.06;;;40.92;27.20
26823;BME280;14852;51.910;8.878;2022-08-03T07:24:21;99702.88;;;41.20;26.94
26823;BME280;14852;51.910;8.878;2022-08-03T07:26:47;99693.09;;;41.58;26.81
26823;BME280;14852;51.910;8.878;2022-08-03T07:29:12;99698.66;;;41.77;26.32
26823;BME280;14852;51.910;8.878;2022-08-03T07:31:38;99698.75;;;41.67;26.34
26823;BME280;14852;51.910;8.878;2022-08-03T07:34:04;99688.09;;;41.66;26.49
26823;BME280;14852;51.910;8.878;2022-08-03T07:36:30;99700.25;;;41.83;26.39
26823;BME280;14852;51.910;8.878;2022-08-03T07:38:56;99691.25;;;42.36;25.60
26823;BME280;14852;51.910;8.878;2022-08-03T07:41:23;99687.00;;;43.15;24.81
26823;BME280;14852;51.910;8.878;2022-08-03T07:43:49;99689.00;;;43.93;23.56
26823;BME280;14852;51.910;8.878;2022-08-03T07:46:14;99687.88;;;44.40;23.12
26823;BME280;14852;51.910;8.878;2022-08-03T07:48:40;99683.78;;;44.24;23.35
26823;BME280;14852;51.910;8.878;2022-08-03T07:51:06;99694.56;;;43.88;23.32
26823;BME280;14852;51.910;8.878;2022-08-03T07:53:32;99685.69;;;44.10;23.34
26823;BME280;14852;51.910;8.878;2022-08-03T07:55:58;99691.91;;;44.43;22.38
26823;BME280;14852;51.910;8.878;2022-08-03T07:58:23;99679.78;;;44.98;21.99
26823;BME280;14852;51.910;8.878;2022-08-03T08:00:49;99685.63;;;45.41;21.22
26823;BME280;14852;51.910;8.878;2022-08-03T08:03:17;99678.53;;;45.63;21.30
26823;BME280;14852;51.910;8.878;2022-08-03T08:05:43;99676.53;;;45.86;21.02
26823;BME280;14852;51.910;8.878;2022-08-03T08:08:09;99677.03;;;46.19;20.17
26823;BME280;14852;51.910;8.878;2022-08-03T08:10:35;99676.22;;;46.58;19.89
26823;BME280;14852;51.910;8.878;2022-08-03T08:13:02;99678.53;;;46.81;19.85
26823;BME280;14852;51.910;8.878;2022-08-03T08:15:28;99678.91;;;47.14;19.34
26823;BME280;14852;51.910;8.878;2022-08-03T08:17:59;99678.72;;;46.94;19.06
26823;BME280;14852;51.910;8.878;2022-08-03T08:20:35;99676.75;;;46.68;19.58
26823;BME280;14852;51.910;8.878;2022-08-03T08:23:06;99681.59;;;46.89;19.06
26823;BME280;14852;51.910;8.878;2022-08-03T08:25:32;99675.78;;;46.90;18.63
26823;BME280;14852;51.910;8.878;2022-08-03T08:27:59;99677.91;;;47.02;18.85
26823;BME280;14852;51.910;8.878;2022-08-03T08:30:27;99686.41;;;46.57;18.99
26823;BME280;14852;51.910;8.878;2022-08-03T08:32:53;99678.94;;;46.09;19.08
26823;BME280;14852;51.910;8.878;2022-08-03T08:35:19;99682.66;;;45.83;19.54
26823;BME280;14852;51.910;8.878;2022-08-03T08:37:45;99679.53;;;45.67;19.74
26823;BME280;14852;51.910;8.878;2022-08-03T08:40:12;99679.09;;;45.82;19.12
26823;BME280;14852;51.910;8.878;2022-08-03T08:42:40;99679.59;;;45.53;19.87
26823;BME280;14852;51.910;8.878;2022-08-03T08:45:06;99680.97;;;45.06;19.90
26823;BME280;14852;51.910;8.878;2022-08-03T08:47:37;99681.16;;;44.05;20.56
26823;BME280;14852;51.910;8.878;2022-08-03T08:50:06;99686.59;;;42.84;21.57
26823;BME280;14852;51.910;8.878;2022-08-03T08:52:33;99689.84;;;41.85;22.97
26823;BME280;14852;51.910;8.878;2022-08-03T08:55:06;99693.50;;;41.37;23.43
26823;BME280;14852;51.910;8.878;2022-08-03T08:57:48;99696.06;;;40.64;24.37
26823;BME280;14852;51.910;8.878;2022-08-03T09:00:15;99692.09;;;40.26;24.63
26823;BME280;14852;51.910;8.878;2022-08-03T09:02:43;99694.59;;;40.12;25.06
26823;BME280;14852;51.910;8.878;2022-08-03T09:05:19;99693.78;;;39.96;25.03
26823;BME280;14852;51.910;8.878;2022-08-03T09:07:46;99688.63;;;39.90;24.67
26823;BME280;14852;51.910;8.878;2022-08-03T09:10:17;99692.16;;;39.75;24.96
26823;BME280;14852;51.910;8.878;2022-08-03T09:12:49;99695.41;;;39.52;24.93
26823;BME280;14852;51.910;8.878;2022-08-03T09:15:34;99692.09;;;39.39;25.30
26823;BME280;14852;51.910;8.878;2022-08-03T09:18:02;99692.63;;;39.26;25.31
26823;BME280;14852;51.910;8.878;2022-08-03T09:20:32;99692.06;;;39.04;25.12
26823;BME280;14852;51.910;8.878;2022-08-03T09:23:07;99694.66;;;38.73;25.67
26823;BME280;14852;51.910;8.878;2022-08-03T09:25:40;99703.94;;;38.35;26.20
26823;BME280;14852;51.910;8.878;2022-08-03T09:28:17;99699.59;;;38.29;25.90
26823;BME280;14852;51.910;8.878;2022-08-03T09:30:57;99694.16;;;38.29;25.99
26823;BME280;14852;51.910;8.878;2022-08-03T09:33:24;99694.31;;;38.13;25.86
26823;BME280;14852;51.910;8.878;2022-08-03T09:35:50;99701.66;;;38.12;25.85
26823;BME280;14852;51.910;8.878;2022-08-03T09:38:16;99697.66;;;38.25;25.54
26823;BME280;14852;51.910;8.878;2022-08-03T09:40:44;99689.91;;;38.49;25.51
26823;BME280;14852;51.910;8.878;2022-08-03T09:43:10;99687.03;;;38.65;25.64
26823;BME280;14852;51.910;8.878;2022-08-03T09:45:38;99684.63;;;38.74;25.62
26823;BME280;14852;51.910;8.878;2022-08-03T09:48:27;99687.31;;;38.74;25.96
26823;BME280;14852;51.910;8.878;2022-08-03T09:51:00;99685.69;;;38.73;25.09
26823;BME280;14852;51.910;8.878;2022-08-03T09:53:26;99684.31;;;38.70;25.35
26823;BME280;14852;51.910;8.878;2022-08-03T09:55:58;99680.75;;;38.60;25.23
26823;BME280;14852;51.910;8.878;2022-08-03T09:58:26;99688.22;;;38.42;25.26
26823;BME280;14852;51.910;8.878;2022-08-03T10:00:54;99691.41;;;38.24;25.03
26823;BME280;14852;51.910;8.878;2022-08-03T10:03:21;99685.34;;;38.12;25.51
26823;BME280;14852;51.910;8.878;2022-08-03T10:05:46;99680.31;;;38.31;25.29
26823;BME280;14852;51.910;8.878;2022-08-03T10:08:18;99683.91;;;38.47;25.49
26823;BME280;14852;51.910;8.878;2022-08-03T10:10:48;99683.66;;;38.48;25.14
26823;BME280;14852;51.910;8.878;2022-08-03T10:13:18;99677.19;;;38.54;25.12
26823;BME280;14852;51.910;8.878;2022-08-03T10:15:45;99675.63;;;38.63;25.24
26823;BME280;14852;51.910;8.878;2022-08-03T10:18:12;99668.56;;;38.67;24.85
26823;BME280;14852;51.910;8.878;2022-08-03T10:20:48;99674.84;;;38.78;25.10
26823;BME280;14852;51.910;8.878;2022-08-03T10:23:17;99675.44;;;38.95;25.14
26823;BME280;14852;51.910;8.878;2022-08-03T10:25:46;99666.19;;;38.96;24.77
26823;BME280;14852;51.910;8.878;2022-08-03T10:28:16;99670.81;;;38.96;24.52
26823;BME280;14852;51.910;8.878;2022-08-03T10:30:48;99663.19;;;38.93;24.97
26823;BME280;14852;51.910;8.878;2022-08-03T10:33:24;99658.06;;;38.96;24.66
26823;BME280;14852;51.910;8.878;2022-08-03T10:35:56;99663.09;;;38.57;24.71
26823;BME280;14852;51.910;8.878;2022-08-03T10:38:31;99663.59;;;38.07;24.90
26823;BME280;14852;51.910;8.878;2022-08-03T10:41:01;99661.38;;;37.99;25.22
26823;BME280;14852;51.910;8.878;2022-08-03T10:43:35;99662.78;;;38.07;25.35
26823;BME280;14852;51.910;8.878;2022-08-03T10:46:03;99659.91;;;38.18;25.67
26823;BME280;14852;51.910;8.878;2022-08-03T10:48:31;99665.44;;;38.44;25.36
26823;BME280;14852;51.910;8.878;2022-08-03T10:51:00;99650.59;;;38.56;24.93
26823;BME280;14852;51.910;8.878;2022-08-03T10:53:38;99653.91;;;38.79;24.77
26823;BME280;14852;51.910;8.878;2022-08-03T10:56:05;99654.75;;;38.84;23.91
26823;BME280;14852;51.910;8.878;2022-08-03T10:58:51;99656.13;;;38.92;24.56
26823;BME280;14852;51.910;8.878;2022-08-03T11:01:47;99650.41;;;38.83;24.11
26823;BME280;14852;51.910;8.878;2022-08-03T11:06:30;99643.59;;;38.65;24.38
26823;BME280;14852;51.910;8.878;2022-08-03T11:11:34;99637.38;;;38.85;24.08
26823;BME280;14852;51.910;8.878;2022-08-03T11:16:38;99641.16;;;38.79;23.84
26823;BME280;14852;51.910;8.878;2022-08-03T11:19:19;99642.53;;;38.77;23.80
26823;BME280;14852;51.910;8.878;2022-08-03T11:27:30;99647.06;;;38.56;23.70
26823;BME280;14852;51.910;8.878;2022-08-03T11:30:09;99640.22;;;38.48;23.60
26823;BME280;14852;51.910;8.878;2022-08-03T11:35:17;99638.94;;;38.66;23.36
26823;BME280;14852;51.910;8.878;2022-08-03T11:40:52;99631.41;;;38.83;23.32
26823;BME280;14852;51.910;8.878;2022-08-03T11:46:05;99635.44;;;38.70;23.52
26823;BME280;14852;51.910;8.878;2022-08-03T11:48:39;99639.81;;;38.82;23.24
26823;BME280;14852;51.910;8.878;2022-08-03T11:51:23;99636.00;;;38.72;22.88
26823;BME280;14852;51.910;8.878;2022-08-03T11:53:59;99640.81;;;38.55;23.12
26823;BME280;14852;51.910;8.878;2022-08-03T11:56:26;99631.53;;;38.46;23.14
26823;BME280;14852;51.910;8.878;2022-08-03T11:58:55;99624.19;;;38.47;22.75
26823;BME280;14852;51.910;8.878;2022-08-03T12:01:23;99639.66;;;38.41;23.03
26823;BME280;14852;51.910;8.878;2022-08-03T12:03:50;99633.16;;;38.42;22.87
26823;BME280;14852;51.910;8.878;2022-08-03T12:06:17;99628.81;;;38.41;22.60
26823;BME280;14852;51.910;8.878;2022-08-03T12:08:44;99637.13;;;38.24;23.27
26823;BME280;14852;51.910;8.878;2022-08-03T12:11:14;99626.84;;;38.31;23.19
26823;BME280;14852;51.910;8.878;2022-08-03T12:13:50;99625.00;;;38.42;23.11
26823;BME280;14852;51.910;8.878;2022-08-03T12:16:24;99631.22;;;38.37;22.95
26823;BME280;14852;51.910;8.878;2022-08-03T12:19:01;99632.00;;;38.33;23.11
26823;BME280;14852;51.910;8.878;2022-08-03T12:21:28;99630.88;;;38.19;23.23
26823;BME280;14852;51.910;8.878;2022-08-03T12:24:02;99628.94;;;38.14;23.49
26823;BME280;14852;51.910;8.878;2022-08-03T12:26:31;99627.56;;;38.12;23.42
26823;BME280;14852;51.910;8.878;2022-08-03T12:29:07;99618.53;;;38.01;23.10
26823;BME280;14852;51.910;8.878;2022-08-03T12:31:32;99622.56;;;37.93;23.14
26823;BME280;14852;51.910;8.878;2022-08-03T12:34:03;99626.66;;;37.96;23.04
26823;BME280;14852;51.910;8.878;2022-08-03T12:36:33;99623.38;;;37.99;23.31
26823;BME280;14852;51.910;8.878;2022-08-03T12:39:05;99629.06;;;37.97;23.48
26823;BME280;14852;51.910;8.878;2022-08-03T12:41:39;99632.88;;;37.96;22.98
26823;BME280;14852;51.910;8.878;2022-08-03T12:44:07;99625.47;;;37.82;22.94
26823;BME280;14852;51.910;8.878;2022-08-03T12:46:36;99621.97;;;37.54;23.03
26823;BME280;14852;51.910;8.878;2022-08-03T12:49:14;99621.16;;;37.49;23.68
26823;BME280;14852;51.910;8.878;2022-08-03T12:54:20;99626.44;;;37.65;23.34
26823;BME280;14852;51.910;8.878;2022-08-03T12:59:31;99621.56;;;37.36;23.67
26823;BME280;14852;51.910;8.878;2022-08-03T13:01:57;99613.44;;;37.36;23.73
26823;BME280;14852;51.910;8.878;2022-08-03T13:04:34;99615.44;;;37.50;23.85
26823;BME280;14852;51.910;8.878;2022-08-03T13:07:03;99619.28;;;37.54;23.50
26823;BME280;14852;51.910;8.878;2022-08-03T13:09:39;99616.09;;;37.62;23.06
26823;BME280;14852;51.910;8.878;2022-08-03T13:12:15;99616.41;;;37.66;23.58
26823;BME280;14852;51.910;8.878;2022-08-03T13:14:46;99615.63;;;37.71;23.60
26823;BME280;14852;51.910;8.878;2022-08-03T13:17:12;99612.69;;;37.77;23.19
26823;BME280;14852;51.910;8.878;2022-08-03T13:19:39;99617.84;;;37.79;23.08
26823;BME280;14852;51.910;8.878;2022-08-03T13:22:17;99609.75;;;37.84;23.02
26823;BME280;14852;51.910;8.878;2022-08-03T13:24:46;99604.59;;;37.82;23.18
26823;BME280;14852;51.910;8.878;2022-08-03T13:27:13;99615.47;;;37.87;22.70
26823;BME280;14852;51.910;8.878;2022-08-03T13:29:39;99606.25;;;37.88;22.92
26823;BME280;14852;51.910;8.878;2022-08-03T13:32:06;99611.94;;;37.87;22.38
26823;BME280;14852;51.910;8.878;2022-08-03T13:34:32;99600.50;;;37.80;22.54
26823;BME280;14852;51.910;8.878;2022-08-03T13:36:58;99607.31;;;37.82;23.02
26823;BME280;14852;51.910;8.878;2022-08-03T13:39:24;99608.69;;;37.90;22.76
26823;BME280;14852;51.910;8.878;2022-08-03T13:41:50;99607.06;;;37.89;22.60
26823;BME280;14852;51.910;8.878;2022-08-03T13:44:17;99605.16;;;37.84;22.39
26823;BME280;14852;51.910;8.878;2022-08-03T13:46:44;99597.78;;;37.80;22.69